sensor_id;sensor_type;location;lat;lon;timestamp;temperature;humidity
21216;DHT22;10765;50.954;5.322;2023-06-10T00:01:28;20.90;1.00
21216;DHT22;10765;50.954;5.322;2023-06-10T00:03:55;20.90;1.00
21216;DHT22;10765;50.954;5.322;2023-06-10T00:06:22;20.80;1.00
21216;DHT22;10765;50.954;5.322;2023-06-10T00:08:49;20.80;1.00
21216;DHT22;10765;50.954;5.322;2023-06-10T00:11:18;20.80;1.00
21216;DHT22;10765;50.954;5.322;2023-06-10T00:13:45;20.70;1.00
21216;DHT22;10765;50.954;5.322;2023-06-10T00:16:12;20.70;1.00
21216;DHT22;10765;50.954;5.322;2023-06-10T00:18:39;20.70;1.00
21216;DHT22;10765;50.954;5.322;2023-06-10T00:21:07;20.60;1.00
21216;DHT22;10765;50.954;5.322;2023-06-10T00:23:34;20.60;1.00
21216;DHT22;10765;50.954;5.322;2023-06-10T00:26:03;20.60;1.00
21216;DHT22;10765;50.954;5.322;2023-06-10T00:28:31;20.50;1.00
21216;DHT22;10765;50.954;5.322;2023-06-10T00:30:58;20.50;1.00
21216;DHT22;10765;50.954;5.322;2023-06-10T00:33:25;20.50;1.00
21216;DHT22;10765;50.954;5.322;2023-06-10T00:35:52;20.50;1.00
21216;DHT22;10765;50.954;5.322;2023-06-10T00:38:19;20.40;1.00
21216;DHT22;10765;50.954;5.322;2023-06-10T00:40:46;20.40;1.00
21216;DHT22;10765;50.954;5.322;2023-06-10T00:43:13;20.40;1.00
21216;DHT22;10765;50.954;5.322;2023-06-10T00:45:41;20.30;1.00
21216;DHT22;10765;50.954;5.322;2023-06-10T00:48:08;20.30;1.00
21216;DHT22;10765;50.954;5.322;2023-06-10T00:50:36;20.30;1.00
21216;DHT22;10765;50.954;5.322;2023-06-10T00:53:05;20.20;1.00
21216;DHT22;10765;50.954;5.322;2023-06-10T00:55:32;20.20;1.00
21216;DHT22;10765;50.954;5.322;2023-06-10T00:57:59;20.20;1.00
21216;DHT22;10765;50.954;5.322;2023-06-10T01:00:27;20.20;1.00
21216;DHT22;10765;50.954;5.322;2023-06-10T01:02:55;20.20;1.00
21216;DHT22;10765;50.954;5.322;2023-06-10T01:05:23;20.10;1.00
21216;DHT22;10765;50.954;5.322;2023-06-10T01:07:56;20.10;1.00
21216;DHT22;10765;50.954;5.322;2023-06-10T01:10:33;20.10;1.00
21216;DHT22;10765;50.954;5.322;2023-06-10T01:13:02;20.10;1.00
21216;DHT22;10765;50.954;5.322;2023-06-10T01:15:30;20.10;1.00
21216;DHT22;10765;50.954;5.322;2023-06-10T01:18:00;20.10;1.00
21216;DHT22;10765;50.954;5.322;2023-06-10T01:20:28;20.10;1.00
21216;DHT22;10765;50.954;5.322;2023-06-10T01:22:57;20.10;1.00
21216;DHT22;10765;50.954;5.322;2023-06-10T01:25:25;20.10;1.00
21216;DHT22;10765;50.954;5.322;2023-06-10T01:27:58;20.10;1.00
21216;DHT22;10765;50.954;5.322;2023-06-10T01:30:32;20.10;1.00
21216;DHT22;10765;50.954;5.322;2023-06-10T01:33:06;20.00;1.00
21216;DHT22;10765;50.954;5.322;2023-06-10T01:35:33;20.00;1.00
21216;DHT22;10765;50.954;5.322;2023-06-10T01:38:05;20.00;1.00
21216;DHT22;10765;50.954;5.322;2023-06-10T01:40:33;20.00;1.00
21216;DHT22;10765;50.954;5.322;2023-06-10T01:43:00;19.90;1.00
21216;DHT22;10765;50.954;5.322;2023-06-10T01:45:28;19.90;1.00
21216;DHT22;10765;50.954;5.322;2023-06-10T01:47:55;19.90;1.00
21216;DHT22;10765;50.954;5.322;2023-06-10T01:50:21;19.90;1.00
21216;DHT22;10765;50.954;5.322;2023-06-10T01:52:49;19.90;1.00
21216;DHT22;10765;50.954;5.322;2023-06-10T01:55:17;19.90;1.00
21216;DHT22;10765;50.954;5.322;2023-06-10T01:57:44;19.80;1.00
21216;DHT22;10765;50.954;5.322;2023-06-10T02:00:12;19.70;1.00
21216;DHT22;10765;50.954;5.322;2023-06-10T02:02:39;19.70;1.00
21216;DHT22;10765;50.954;5.322;2023-06-10T02:05:06;19.70;1.00
21216;DHT22;10765;50.954;5.322;2023-06-10T02:07:33;19.70;1.00
21216;DHT22;10765;50.954;5.322;2023-06-10T02:10:00;19.70;1.00
21216;DHT22;10765;50.954;5.322;2023-06-10T02:12:29;19.60;1.00
21216;DHT22;10765;50.954;5.322;2023-06-10T02:14:55;19.60;1.00
21216;DHT22;10765;50.954;5.322;2023-06-10T02:17:22;19.60;1.00
21216;DHT22;10765;50.954;5.322;2023-06-10T02:19:49;19.60;1.00
21216;DHT22;10765;50.954;5.322;2023-06-10T02:22:20;19.50;1.00
21216;DHT22;10765;50.954;5.322;2023-06-10T02:24:47;19.40;1.00
21216;DHT22;10765;50.954;5.322;2023-06-10T02:27:14;19.40;1.00
21216;DHT22;10765;50.954;5.322;2023-06-10T02:29:43;19.50;1.00
21216;DHT22;10765;50.954;5.322;2023-06-10T02:32:10;19.40;1.00
21216;DHT22;10765;50.954;5.322;2023-06-10T02:34:37;19.40;1.10
21216;DHT22;10765;50.954;5.322;2023-06-10T02:37:04;19.30;5.30
21216;DHT22;10765;50.954;5.322;2023-06-10T02:39:31;19.30;8.10
21216;DHT22;10765;50.954;5.322;2023-06-10T02:41:58;19.30;16.40
21216;DHT22;10765;50.954;5.322;2023-06-10T02:44:25;19.20;18.90
21216;DHT22;10765;50.954;5.322;2023-06-10T02:46:53;19.20;22.80
21216;DHT22;10765;50.954;5.322;2023-06-10T02:49:20;19.20;29.70
21216;DHT22;10765;50.954;5.322;2023-06-10T02:51:47;19.10;36.40
21216;DHT22;10765;50.954;5.322;2023-06-10T02:54:13;19.10;51.20
21216;DHT22;10765;50.954;5.322;2023-06-10T02:56:42;19.10;50.20
21216;DHT22;10765;50.954;5.322;2023-06-10T02:59:08;19.10;60.40
21216;DHT22;10765;50.954;5.322;2023-06-10T03:01:36;19.00;79.50
21216;DHT22;10765;50.954;5.322;2023-06-10T03:04:05;19.00;83.60
21216;DHT22;10765;50.954;5.322;2023-06-10T03:06:32;19.00;84.40
21216;DHT22;10765;50.954;5.322;2023-06-10T03:09:01;18.90;86.40
21216;DHT22;10765;50.954;5.322;2023-06-10T03:11:29;18.90;85.10
21216;DHT22;10765;50.954;5.322;2023-06-10T03:13:57;18.90;97.30
21216;DHT22;10765;50.954;5.322;2023-06-10T03:16:24;18.90;95.90
21216;DHT22;10765;50.954;5.322;2023-06-10T03:18:53;18.90;95.80
21216;DHT22;10765;50.954;5.322;2023-06-10T03:21:21;18.80;99.90
21216;DHT22;10765;50.954;5.322;2023-06-10T03:23:48;18.80;99.90
21216;DHT22;10765;50.954;5.322;2023-06-10T03:26:15;18.80;99.90
21216;DHT22;10765;50.954;5.322;2023-06-10T03:28:42;18.80;99.90
21216;DHT22;10765;50.954;5.322;2023-06-10T03:31:09;18.80;99.90
21216;DHT22;10765;50.954;5.322;2023-06-10T03:33:36;18.80;99.90
21216;DHT22;10765;50.954;5.322;2023-06-10T03:36:03;18.80;99.90
21216;DHT22;10765;50.954;5.322;2023-06-10T03:38:32;18.80;99.90
21216;DHT22;10765;50.954;5.322;2023-06-10T03:40:59;18.80;99.90
21216;DHT22;10765;50.954;5.322;2023-06-10T03:43:25;18.80;99.90
21216;DHT22;10765;50.954;5.322;2023-06-10T03:45:53;18.80;99.90
21216;DHT22;10765;50.954;5.322;2023-06-10T03:48:20;18.80;99.90
21216;DHT22;10765;50.954;5.322;2023-06-10T03:50:46;18.80;99.90
21216;DHT22;10765;50.954;5.322;2023-06-10T03:53:16;18.80;99.90
21216;DHT22;10765;50.954;5.322;2023-06-10T03:55:44;18.80;99.90
21216;DHT22;10765;50.954;5.322;2023-06-10T03:58:11;18.80;99.90
21216;DHT22;10765;50.954;5.322;2023-06-10T04:00:40;18.90;99.90
21216;DHT22;10765;50.954;5.322;2023-06-10T04:03:08;18.90;99.90
21216;DHT22;10765;50.954;5.322;2023-06-10T04:05:40;19.00;99.90
21216;DHT22;10765;50.954;5.322;2023-06-10T04:08:07;19.00;99.90
21216;DHT22;10765;50.954;5.322;2023-06-10T04:10:34;19.00;98.30
21216;DHT22;10765;50.954;5.322;2023-06-10T04:13:03;19.20;94.00
21216;DHT22;10765;50.954;5.322;2023-06-10T04:15:30;19.30;73.30
21216;DHT22;10765;50.954;5.322;2023-06-10T04:17:59;19.40;54.40
21216;DHT22;10765;50.954;5.322;2023-06-10T04:20:26;19.50;31.90
21216;DHT22;10765;50.954;5.322;2023-06-10T04:22:53;19.50;32.70
21216;DHT22;10765;50.954;5.322;2023-06-10T04:25:20;19.70;8.70
21216;DHT22;10765;50.954;5.322;2023-06-10T04:27:47;19.80;6.80
21216;DHT22;10765;50.954;5.322;2023-06-10T04:30:16;20.00;1.00
21216;DHT22;10765;50.954;5.322;2023-06-10T04:32:43;20.10;1.00
21216;DHT22;10765;50.954;5.322;2023-06-10T04:35:12;20.20;1.00
21216;DHT22;10765;50.954;5.322;2023-06-10T04:37:39;20.30;1.00
21216;DHT22;10765;50.954;5.322;2023-06-10T04:40:07;20.50;1.00
21216;DHT22;10765;50.954;5.322;2023-06-10T04:42:36;20.60;1.00
21216;DHT22;10765;50.954;5.322;2023-06-10T04:45:03;20.70;1.00
21216;DHT22;10765;50.954;5.322;2023-06-10T04:47:32;20.80;1.00
21216;DHT22;10765;50.954;5.322;2023-06-10T04:49:59;20.90;1.00
21216;DHT22;10765;50.954;5.322;2023-06-10T04:52:26;21.20;1.00
21216;DHT22;10765;50.954;5.322;2023-06-10T04:54:53;21.40;1.00
21216;DHT22;10765;50.954;5.322;2023-06-10T04:57:20;21.50;1.00
21216;DHT22;10765;50.954;5.322;2023-06-10T04:59:47;21.80;1.00
21216;DHT22;10765;50.954;5.322;2023-06-10T05:02:14;22.10;1.00
21216;DHT22;10765;50.954;5.322;2023-06-10T05:04:42;22.20;1.00
21216;DHT22;10765;50.954;5.322;2023-06-10T05:07:09;22.40;1.00
21216;DHT22;10765;50.954;5.322;2023-06-10T05:09:36;22.70;1.00
21216;DHT22;10765;50.954;5.322;2023-06-10T05:12:07;22.80;1.00
21216;DHT22;10765;50.954;5.322;2023-06-10T05:14:34;22.90;1.00
21216;DHT22;10765;50.954;5.322;2023-06-10T05:17:04;23.20;1.00
21216;DHT22;10765;50.954;5.322;2023-06-10T05:19:31;23.30;1.00
21216;DHT22;10765;50.954;5.322;2023-06-10T05:22:00;23.30;1.00
21216;DHT22;10765;50.954;5.322;2023-06-10T05:24:27;23.50;1.00
21216;DHT22;10765;50.954;5.322;2023-06-10T05:26:55;23.80;1.00
21216;DHT22;10765;50.954;5.322;2023-06-10T05:29:22;23.90;1.00
21216;DHT22;10765;50.954;5.322;2023-06-10T05:31:49;24.30;1.00
21216;DHT22;10765;50.954;5.322;2023-06-10T05:34:16;24.60;1.00
21216;DHT22;10765;50.954;5.322;2023-06-10T05:36:43;24.70;1.00
21216;DHT22;10765;50.954;5.322;2023-06-10T05:39:11;25.00;1.00
21216;DHT22;10765;50.954;5.322;2023-06-10T05:41:38;24.90;1.00
21216;DHT22;10765;50.954;5.322;2023-06-10T05:44:05;25.00;1.00
21216;DHT22;10765;50.954;5.322;2023-06-10T05:46:32;25.30;1.00
21216;DHT22;10765;50.954;5.322;2023-06-10T05:48:59;25.70;1.00
21216;DHT22;10765;50.954;5.322;2023-06-10T05:51:26;26.00;1.00
21216;DHT22;10765;50.954;5.322;2023-06-10T05:53:54;26.30;1.00
21216;DHT22;10765;50.954;5.322;2023-06-10T05:56:22;26.30;1.00
21216;DHT22;10765;50.954;5.322;2023-06-10T05:58:51;26.00;1.00
21216;DHT22;10765;50.954;5.322;2023-06-10T06:01:18;26.50;1.00
21216;DHT22;10765;50.954;5.322;2023-06-10T06:03:44;26.80;1.00
21216;DHT22;10765;50.954;5.322;2023-06-10T06:06:11;27.20;1.00
21216;DHT22;10765;50.954;5.322;2023-06-10T06:08:38;27.00;1.00
21216;DHT22;10765;50.954;5.322;2023-06-10T06:11:05;26.90;1.00
21216;DHT22;10765;50.954;5.322;2023-06-10T06:13:33;27.50;1.00
21216;DHT22;10765;50.954;5.322;2023-06-10T06:16:00;28.10;1.00
21216;DHT22;10765;50.954;5.322;2023-06-10T06:18:27;28.10;1.00
21216;DHT22;10765;50.954;5.322;2023-06-10T06:20:54;28.20;1.00
21216;DHT22;10765;50.954;5.322;2023-06-10T06:23:21;28.50;1.00
21216;DHT22;10765;50.954;5.322;2023-06-10T06:25:48;28.20;1.00
21216;DHT22;10765;50.954;5.322;2023-06-10T06:28:15;28.00;1.00
21216;DHT22;10765;50.954;5.322;2023-06-10T06:30:43;28.00;1.00
21216;DHT22;10765;50.954;5.322;2023-06-10T06:33:10;28.10;1.00
21216;DHT22;10765;50.954;5.322;2023-06-10T06:35:37;28.40;1.00
21216;DHT22;10765;50.954;5.322;2023-06-10T06:38:04;28.80;1.00
21216;DHT22;10765;50.954;5.322;2023-06-10T06:40:31;29.20;1.00
21216;DHT22;10765;50.954;5.322;2023-06-10T06:42:58;29.70;99.90
21216;DHT22;10765;50.954;5.322;2023-06-10T06:45:25;29.40;99.90
21216;DHT22;10765;50.954;5.322;2023-06-10T06:47:53;29.50;99.90
21216;DHT22;10765;50.954;5.322;2023-06-10T06:50:21;30.00;99.90
21216;DHT22;10765;50.954;5.322;2023-06-10T06:52:48;29.70;99.90
21216;DHT22;10765;50.954;5.322;2023-06-10T06:55:15;29.50;99.90
21216;DHT22;10765;50.954;5.322;2023-06-10T06:57:42;29.80;99.90
21216;DHT22;10765;50.954;5.322;2023-06-10T07:00:09;30.40;99.90
21216;DHT22;10765;50.954;5.322;2023-06-10T07:02:36;30.20;99.90
21216;DHT22;10765;50.954;5.322;2023-06-10T07:05:05;30.70;99.90
21216;DHT22;10765;50.954;5.322;2023-06-10T07:07:32;31.10;99.90
21216;DHT22;10765;50.954;5.322;2023-06-10T07:09:59;31.10;99.90
21216;DHT22;10765;50.954;5.322;2023-06-10T07:12:26;32.00;99.90
21216;DHT22;10765;50.954;5.322;2023-06-10T07:14:53;31.80;99.90
21216;DHT22;10765;50.954;5.322;2023-06-10T07:17:20;32.10;99.90
21216;DHT22;10765;50.954;5.322;2023-06-10T07:19:47;32.00;99.90
21216;DHT22;10765;50.954;5.322;2023-06-10T07:22:15;32.10;99.90
21216;DHT22;10765;50.954;5.322;2023-06-10T07:24:42;32.60;99.90
21216;DHT22;10765;50.954;5.322;2023-06-10T07:27:09;32.50;99.90
21216;DHT22;10765;50.954;5.322;2023-06-10T07:29:36;32.40;99.90
21216;DHT22;10765;50.954;5.322;2023-06-10T07:32:03;32.60;99.90
21216;DHT22;10765;50.954;5.322;2023-06-10T07:34:30;33.10;99.90
21216;DHT22;10765;50.954;5.322;2023-06-10T07:36:57;33.90;99.90
21216;DHT22;10765;50.954;5.322;2023-06-10T07:39:25;33.90;99.90
21216;DHT22;10765;50.954;5.322;2023-06-10T07:41:52;34.00;99.90
21216;DHT22;10765;50.954;5.322;2023-06-10T07:44:22;34.80;99.90
21216;DHT22;10765;50.954;5.322;2023-06-10T07:46:49;35.40;99.90
21216;DHT22;10765;50.954;5.322;2023-06-10T07:49:16;35.40;99.90
21216;DHT22;10765;50.954;5.322;2023-06-10T07:51:43;35.50;99.90
21216;DHT22;10765;50.954;5.322;2023-06-10T07:54:10;35.50;99.90
21216;DHT22;10765;50.954;5.322;2023-06-10T07:56:39;35.70;99.90
21216;DHT22;10765;50.954;5.322;2023-06-10T07:59:06;35.10;99.90
21216;DHT22;10765;50.954;5.322;2023-06-10T08:01:32;34.70;99.90
21216;DHT22;10765;50.954;5.322;2023-06-10T08:04:01;34.40;99.90
21216;DHT22;10765;50.954;5.322;2023-06-10T08:06:28;35.00;99.90
21216;DHT22;10765;50.954;5.322;2023-06-10T08:08:55;36.10;99.90
21216;DHT22;10765;50.954;5.322;2023-06-10T08:11:22;36.30;99.90
21216;DHT22;10765;50.954;5.322;2023-06-10T08:13:50;36.00;99.90
21216;DHT22;10765;50.954;5.322;2023-06-10T08:16:17;35.60;99.90
21216;DHT22;10765;50.954;5.322;2023-06-10T08:18:44;36.20;99.90
21216;DHT22;10765;50.954;5.322;2023-06-10T08:21:11;36.50;99.90
21216;DHT22;10765;50.954;5.322;2023-06-10T08:23:38;36.60;99.90
21216;DHT22;10765;50.954;5.322;2023-06-10T08:26:04;35.90;99.90
21216;DHT22;10765;50.954;5.322;2023-06-10T08:28:31;36.50;99.90
21216;DHT22;10765;50.954;5.322;2023-06-10T08:31:00;37.30;99.90
21216;DHT22;10765;50.954;5.322;2023-06-10T08:33:26;37.00;99.90
21216;DHT22;10765;50.954;5.322;2023-06-10T08:35:53;36.60;99.90
21216;DHT22;10765;50.954;5.322;2023-06-10T08:38:20;36.50;99.90
21216;DHT22;10765;50.954;5.322;2023-06-10T08:40:48;36.20;99.90
21216;DHT22;10765;50.954;5.322;2023-06-10T08:43:22;36.70;99.90
21216;DHT22;10765;50.954;5.322;2023-06-10T08:45:55;37.30;99.90
21216;DHT22;10765;50.954;5.322;2023-06-10T08:48:29;37.50;99.90
21216;DHT22;10765;50.954;5.322;2023-06-10T08:50:57;37.80;99.90
21216;DHT22;10765;50.954;5.322;2023-06-10T08:53:25;38.00;99.90
21216;DHT22;10765;50.954;5.322;2023-06-10T08:55:55;38.80;99.90
21216;DHT22;10765;50.954;5.322;2023-06-10T08:58:26;38.90;99.90
21216;DHT22;10765;50.954;5.322;2023-06-10T09:00:54;38.80;99.90
21216;DHT22;10765;50.954;5.322;2023-06-10T09:03:21;39.10;99.90
21216;DHT22;10765;50.954;5.322;2023-06-10T09:05:51;38.70;99.90
21216;DHT22;10765;50.954;5.322;2023-06-10T09:08:18;39.20;99.90
21216;DHT22;10765;50.954;5.322;2023-06-10T09:10:45;39.00;99.90
21216;DHT22;10765;50.954;5.322;2023-06-10T09:13:13;39.30;99.90
21216;DHT22;10765;50.954;5.322;2023-06-10T09:15:41;38.80;99.90
21216;DHT22;10765;50.954;5.322;2023-06-10T09:18:08;38.30;99.90
21216;DHT22;10765;50.954;5.322;2023-06-10T09:20:35;38.80;99.90
21216;DHT22;10765;50.954;5.322;2023-06-10T09:23:03;40.40;99.90
21216;DHT22;10765;50.954;5.322;2023-06-10T09:25:37;40.20;99.90
21216;DHT22;10765;50.954;5.322;2023-06-10T09:28:08;39.90;99.90
21216;DHT22;10765;50.954;5.322;2023-06-10T09:30:39;40.50;99.90
21216;DHT22;10765;50.954;5.322;2023-06-10T09:33:11;40.00;99.90
21216;DHT22;10765;50.954;5.322;2023-06-10T09:35:45;39.90;99.90
21216;DHT22;10765;50.954;5.322;2023-06-10T09:38:15;39.90;99.90
21216;DHT22;10765;50.954;5.322;2023-06-10T09:40:49;39.40;99.90
21216;DHT22;10765;50.954;5.322;2023-06-10T09:43:17;39.40;99.90
21216;DHT22;10765;50.954;5.322;2023-06-10T09:45:47;39.90;99.90
21216;DHT22;10765;50.954;5.322;2023-06-10T09:48:14;39.40;99.90
21216;DHT22;10765;50.954;5.322;2023-06-10T09:50:42;39.40;99.90
21216;DHT22;10765;50.954;5.322;2023-06-10T09:53:10;39.50;99.90
21216;DHT22;10765;50.954;5.322;2023-06-10T09:55:39;40.80;99.90
21216;DHT22;10765;50.954;5.322;2023-06-10T09:58:07;41.00;99.90
21216;DHT22;10765;50.954;5.322;2023-06-10T10:00:35;41.30;99.90
21216;DHT22;10765;50.954;5.322;2023-06-10T10:03:02;41.20;99.90
21216;DHT22;10765;50.954;5.322;2023-06-10T10:05:29;40.10;99.90
21216;DHT22;10765;50.954;5.322;2023-06-10T10:07:56;39.80;99.90
21216;DHT22;10765;50.954;5.322;2023-06-10T10:10:23;40.10;99.90
21216;DHT22;10765;50.954;5.322;2023-06-10T10:12:54;40.80;99.90
21216;DHT22;10765;50.954;5.322;2023-06-10T10:15:24;40.60;99.90
21216;DHT22;10765;50.954;5.322;2023-06-10T10:17:56;39.50;99.90
21216;DHT22;10765;50.954;5.322;2023-06-10T10:20:27;39.90;99.90
21216;DHT22;10765;50.954;5.322;2023-06-10T10:22:57;40.00;99.90
21216;DHT22;10765;50.954;5.322;2023-06-10T10:25:28;40.70;99.90
21216;DHT22;10765;50.954;5.322;2023-06-10T10:27:58;40.30;99.90
21216;DHT22;10765;50.954;5.322;2023-06-10T10:30:26;40.50;99.90
21216;DHT22;10765;50.954;5.322;2023-06-10T10:32:57;41.20;99.90
21216;DHT22;10765;50.954;5.322;2023-06-10T10:35:25;41.30;99.90
21216;DHT22;10765;50.954;5.322;2023-06-10T10:37:54;41.00;99.90
21216;DHT22;10765;50.954;5.322;2023-06-10T10:40:22;41.80;99.90
21216;DHT22;10765;50.954;5.322;2023-06-10T10:42:49;41.30;99.90
21216;DHT22;10765;50.954;5.322;2023-06-10T10:45:18;41.30;99.90
21216;DHT22;10765;50.954;5.322;2023-06-10T10:47:46;42.20;99.90
21216;DHT22;10765;50.954;5.322;2023-06-10T10:50:14;41.40;99.90
21216;DHT22;10765;50.954;5.322;2023-06-10T10:52:53;41.30;99.90
21216;DHT22;10765;50.954;5.322;2023-06-10T10:55:22;41.40;99.90
21216;DHT22;10765;50.954;5.322;2023-06-10T10:57:56;42.20;99.90
21216;DHT22;10765;50.954;5.322;2023-06-10T11:00:31;42.90;99.90
21216;DHT22;10765;50.954;5.322;2023-06-10T11:03:03;42.30;99.90
21216;DHT22;10765;50.954;5.322;2023-06-10T11:05:35;40.70;99.90
21216;DHT22;10765;50.954;5.322;2023-06-10T11:08:03;40.20;99.90
21216;DHT22;10765;50.954;5.322;2023-06-10T11:10:32;40.70;99.90
21216;DHT22;10765;50.954;5.322;2023-06-10T11:12:59;41.60;99.90
21216;DHT22;10765;50.954;5.322;2023-06-10T11:15:27;41.30;99.90
21216;DHT22;10765;50.954;5.322;2023-06-10T11:18:11;42.60;99.90
21216;DHT22;10765;50.954;5.322;2023-06-10T11:20:59;42.10;99.90
21216;DHT22;10765;50.954;5.322;2023-06-10T11:23:40;42.70;99.90
21216;DHT22;10765;50.954;5.322;2023-06-10T11:26:18;42.00;99.90
21216;DHT22;10765;50.954;5.322;2023-06-10T11:29:04;41.70;99.90
21216;DHT22;10765;50.954;5.322;2023-06-10T11:31:32;41.50;99.90
21216;DHT22;10765;50.954;5.322;2023-06-10T11:34:01;42.50;99.90
21216;DHT22;10765;50.954;5.322;2023-06-10T11:36:30;41.80;99.90
21216;DHT22;10765;50.954;5.322;2023-06-10T11:38:58;41.80;99.90
21216;DHT22;10765;50.954;5.322;2023-06-10T11:41:26;40.30;99.90
21216;DHT22;10765;50.954;5.322;2023-06-10T11:43:54;40.90;99.90
21216;DHT22;10765;50.954;5.322;2023-06-10T11:46:22;40.50;99.90
21216;DHT22;10765;50.954;5.322;2023-06-10T11:48:51;39.60;99.90
21216;DHT22;10765;50.954;5.322;2023-06-10T11:51:19;41.10;99.90
21216;DHT22;10765;50.954;5.322;2023-06-10T11:53:47;41.80;99.90
21216;DHT22;10765;50.954;5.322;2023-06-10T11:56:19;41.10;99.90
21216;DHT22;10765;50.954;5.322;2023-06-10T11:58:52;39.90;99.90
21216;DHT22;10765;50.954;5.322;2023-06-10T12:01:20;41.20;99.90
21216;DHT22;10765;50.954;5.322;2023-06-10T12:03:56;40.70;99.90
21216;DHT22;10765;50.954;5.322;2023-06-10T12:06:24;40.80;99.90
21216;DHT22;10765;50.954;5.322;2023-06-10T12:08:51;40.90;99.90
21216;DHT22;10765;50.954;5.322;2023-06-10T12:11:18;40.90;99.90
21216;DHT22;10765;50.954;5.322;2023-06-10T12:13:46;40.50;99.90
21216;DHT22;10765;50.954;5.322;2023-06-10T12:16:15;39.70;99.90
21216;DHT22;10765;50.954;5.322;2023-06-10T12:18:43;39.60;99.90
21216;DHT22;10765;50.954;5.322;2023-06-10T12:21:19;40.80;99.90
21216;DHT22;10765;50.954;5.322;2023-06-10T12:24:05;40.80;99.90
21216;DHT22;10765;50.954;5.322;2023-06-10T12:26:40;41.00;99.90
21216;DHT22;10765;50.954;5.322;2023-06-10T12:29:18;39.40;99.90
21216;DHT22;10765;50.954;5.322;2023-06-10T12:31:56;39.30;99.90
21216;DHT22;10765;50.954;5.322;2023-06-10T12:34:31;39.10;99.90
21216;DHT22;10765;50.954;5.322;2023-06-10T12:36:59;38.60;99.90
21216;DHT22;10765;50.954;5.322;2023-06-10T12:39:27;39.10;99.90
21216;DHT22;10765;50.954;5.322;2023-06-10T12:41:54;38.50;99.90
21216;DHT22;10765;50.954;5.322;2023-06-10T12:44:31;38.80;99.90
21216;DHT22;10765;50.954;5.322;2023-06-10T12:46:58;39.50;99.90
21216;DHT22;10765;50.954;5.322;2023-06-10T12:49:25;40.80;99.90
21216;DHT22;10765;50.954;5.322;2023-06-10T12:51:53;41.20;99.90
21216;DHT22;10765;50.954;5.322;2023-06-10T12:54:20;39.60;99.90
21216;DHT22;10765;50.954;5.322;2023-06-10T12:56:49;39.80;99.90
21216;DHT22;10765;50.954;5.322;2023-06-10T12:59:15;39.60;99.90
21216;DHT22;10765;50.954;5.322;2023-06-10T13:01:43;40.70;99.90
21216;DHT22;10765;50.954;5.322;2023-06-10T13:04:10;39.50;99.90
21216;DHT22;10765;50.954;5.322;2023-06-10T13:06:38;39.30;99.90
21216;DHT22;10765;50.954;5.322;2023-06-10T13:09:07;39.60;99.90
21216;DHT22;10765;50.954;5.322;2023-06-10T13:11:35;40.00;99.90
21216;DHT22;10765;50.954;5.322;2023-06-10T13:14:04;39.30;99.90
21216;DHT22;10765;50.954;5.322;2023-06-10T13:16:32;38.90;1.00
21216;DHT22;10765;50.954;5.322;2023-06-10T13:18:59;38.20;1.00
21216;DHT22;10765;50.954;5.322;2023-06-10T13:21:28;38.80;1.00
21216;DHT22;10765;50.954;5.322;2023-06-10T13:23:55;38.90;99.90
21216;DHT22;10765;50.954;5.322;2023-06-10T13:26:22;38.40;1.00
21216;DHT22;10765;50.954;5.322;2023-06-10T13:28:48;38.70;1.00
21216;DHT22;10765;50.954;5.322;2023-06-10T13:31:17;38.00;1.00
21216;DHT22;10765;50.954;5.322;2023-06-10T13:33:44;36.60;1.00
21216;DHT22;10765;50.954;5.322;2023-06-10T13:36:11;34.80;1.00
21216;DHT22;10765;50.954;5.322;2023-06-10T13:38:38;33.90;1.00
21216;DHT22;10765;50.954;5.322;2023-06-10T13:41:05;33.10;1.00
21216;DHT22;10765;50.954;5.322;2023-06-10T13:43:32;33.20;1.00
21216;DHT22;10765;50.954;5.322;2023-06-10T13:45:59;32.80;1.00
21216;DHT22;10765;50.954;5.322;2023-06-10T13:48:27;32.80;1.00
21216;DHT22;10765;50.954;5.322;2023-06-10T13:50:54;33.00;1.00
21216;DHT22;10765;50.954;5.322;2023-06-10T13:53:21;32.50;1.00
21216;DHT22;10765;50.954;5.322;2023-06-10T13:55:48;32.30;1.00
21216;DHT22;10765;50.954;5.322;2023-06-10T13:58:15;32.00;1.00
21216;DHT22;10765;50.954;5.322;2023-06-10T14:00:42;32.00;1.00
21216;DHT22;10765;50.954;5.322;2023-06-10T14:03:09;32.20;1.00
21216;DHT22;10765;50.954;5.322;2023-06-10T14:05:37;32.40;1.00
21216;DHT22;10765;50.954;5.322;2023-06-10T14:08:04;32.00;1.00
21216;DHT22;10765;50.954;5.322;2023-06-10T14:10:31;31.90;1.00
21216;DHT22;10765;50.954;5.322;2023-06-10T14:12:58;32.00;1.00
21216;DHT22;10765;50.954;5.322;2023-06-10T14:15:25;31.70;1.00
21216;DHT22;10765;50.954;5.322;2023-06-10T14:17:52;31.60;1.00
21216;DHT22;10765;50.954;5.322;2023-06-10T14:20:19;31.50;1.00
21216;DHT22;10765;50.954;5.322;2023-06-10T14:22:48;31.70;1.00
21216;DHT22;10765;50.954;5.322;2023-06-10T14:25:15;32.00;1.00
21216;DHT22;10765;50.954;5.322;2023-06-10T14:27:43;32.30;1.00
21216;DHT22;10765;50.954;5.322;2023-06-10T14:30:13;32.10;1.00
21216;DHT22;10765;50.954;5.322;2023-06-10T14:32:40;31.80;1.00
21216;DHT22;10765;50.954;5.322;2023-06-10T14:35:07;31.90;1.00
21216;DHT22;10765;50.954;5.322;2023-06-10T14:37:34;31.80;1.00
21216;DHT22;10765;50.954;5.322;2023-06-10T14:40:04;31.60;1.00
21216;DHT22;10765;50.954;5.322;2023-06-10T14:42:31;31.30;1.00
21216;DHT22;10765;50.954;5.322;2023-06-10T14:44:58;31.30;1.00
21216;DHT22;10765;50.954;5.322;2023-06-10T14:47:25;31.40;1.00
21216;DHT22;10765;50.954;5.322;2023-06-10T14:49:52;31.30;1.00
21216;DHT22;10765;50.954;5.322;2023-06-10T14:52:19;31.00;1.00
21216;DHT22;10765;50.954;5.322;2023-06-10T14:54:46;31.10;1.00
21216;DHT22;10765;50.954;5.322;2023-06-10T14:57:14;31.10;1.00
21216;DHT22;10765;50.954;5.322;2023-06-10T14:59:41;31.10;1.00
21216;DHT22;10765;50.954;5.322;2023-06-10T15:02:08;31.30;1.00
21216;DHT22;10765;50.954;5.322;2023-06-10T15:04:35;31.60;1.00
21216;DHT22;10765;50.954;5.322;2023-06-10T15:07:02;31.70;1.00
21216;DHT22;10765;50.954;5.322;2023-06-10T15:09:29;31.80;1.00
21216;DHT22;10765;50.954;5.322;2023-06-10T15:11:57;31.60;1.00
21216;DHT22;10765;50.954;5.322;2023-06-10T15:14:26;31.70;1.00
21216;DHT22;10765;50.954;5.322;2023-06-10T15:16:53;31.70;1.00
21216;DHT22;10765;50.954;5.322;2023-06-10T15:19:21;31.60;1.00
21216;DHT22;10765;50.954;5.322;2023-06-10T15:21:48;31.50;1.00
21216;DHT22;10765;50.954;5.322;2023-06-10T15:24:15;31.30;1.00
21216;DHT22;10765;50.954;5.322;2023-06-10T15:26:41;31.40;1.00
21216;DHT22;10765;50.954;5.322;2023-06-10T15:29:08;30.90;1.00
21216;DHT22;10765;50.954;5.322;2023-06-10T15:31:37;30.50;1.00
21216;DHT22;10765;50.954;5.322;2023-06-10T15:34:04;30.50;1.00
21216;DHT22;10765;50.954;5.322;2023-06-10T15:36:32;30.70;1.00
21216;DHT22;10765;50.954;5.322;2023-06-10T15:39:03;30.80;1.00
21216;DHT22;10765;50.954;5.322;2023-06-10T15:41:32;31.00;1.00
21216;DHT22;10765;50.954;5.322;2023-06-10T15:43:59;31.00;1.00